Las Cruces, New Mexico
Current Conditions -  °F | °C
As of 9:15 AM on Sunday 23 Nov 2014 (Local Time) from KLRU Reporting Station
Clear Clear  
Wind Chill: 56°   Ceiling: Unl
Heat Index: 56°   Visibility: 10mi
Dew Point: 24°   Wind: 26mph
Humidity: 29%   Direction: 280°W
Pressure: 29.94"   Gusts: 37mph
Location:  32.31°N, 106.77°W
Report Text: KLRU 231615Z AUTO 28023G32KT 10SM CLR 14/M04 A2994 RMK AO2 T01351044
Loading
Personal Weather Stations






























Interactive Weather Map New forecast layout! Learn more

10-Day Weather Forecast

Advertisements
Track Severe Weather on mobile